createdAt,value
2023-04-17T00:01:47.752Z,22.50
2023-04-17T00:04:41.593Z,21.30
2023-04-17T00:07:28.911Z,21.10
2023-04-17T00:10:23.387Z,22.33
2023-04-17T00:13:17.439Z,25.63
2023-04-17T00:16:04.797Z,23.10
2023-04-17T00:18:58.376Z,24.23
2023-04-17T00:21:45.698Z,21.67
2023-04-17T00:24:39.452Z,22.33
2023-04-17T00:27:26.528Z,21.45
2023-04-17T00:30:20.381Z,19.58
2023-04-17T00:33:07.503Z,21.67
2023-04-17T00:36:01.507Z,22.83
2023-04-17T00:38:48.640Z,21.75
2023-04-17T00:41:42.417Z,23.88
2023-04-17T00:44:36.431Z,23.58
2023-04-17T00:47:26.323Z,23.33
2023-04-17T00:50:20.505Z,24.05
2023-04-17T00:53:07.703Z,23.10
2023-04-17T00:56:02.480Z,22.40
2023-04-17T00:58:50.600Z,21.48
2023-04-17T01:01:44.595Z,21.58
2023-04-17T01:04:31.755Z,20.85
2023-04-17T01:07:25.489Z,23.92
2023-04-17T01:10:19.442Z,22.55
2023-04-17T01:13:07.796Z,23.35
2023-04-17T01:16:01.493Z,23.98
2023-04-17T01:18:55.498Z,22.77
2023-04-17T01:21:49.638Z,21.48
2023-04-17T01:24:43.484Z,21.38
2023-04-17T01:27:30.578Z,21.58
2023-04-17T01:30:24.567Z,22.17
2023-04-17T01:33:11.850Z,22.67
2023-04-17T01:36:05.552Z,23.85
2023-04-17T01:38:59.503Z,22.50
2023-04-17T01:41:53.540Z,20.13
2023-04-17T01:44:47.793Z,20.67
2023-04-17T01:47:35.276Z,21.38
2023-04-17T01:50:28.535Z,20.20
2023-04-17T01:53:15.744Z,22.90
2023-04-17T01:56:09.553Z,21.48
2023-04-17T01:58:56.719Z,20.33
2023-04-17T02:01:50.671Z,19.35
2023-04-17T02:04:37.888Z,18.27
2023-04-17T02:07:31.589Z,18.15
2023-04-17T02:10:25.607Z,18.20
2023-04-17T02:13:19.594Z,18.35
2023-04-17T02:16:07.669Z,17.00
2023-04-17T02:19:01.610Z,22.48
2023-04-17T02:21:55.592Z,20.25
2023-04-17T02:24:42.837Z,18.70
2023-04-17T02:27:36.848Z,19.08
2023-04-17T02:30:31.646Z,18.55
2023-04-17T02:33:25.606Z,18.13
2023-04-17T02:36:12.764Z,17.10
2023-04-17T02:39:06.602Z,19.38
2023-04-17T02:41:53.756Z,19.70
2023-04-17T02:44:47.634Z,17.73
2023-04-17T02:47:34.779Z,15.15
2023-04-17T02:50:28.670Z,16.80
2023-04-17T02:53:22.660Z,15.88
2023-04-17T02:56:37.616Z,16.52
2023-04-17T02:59:32.635Z,18.23
2023-04-17T03:02:23.162Z,17.60
2023-04-17T03:05:26.658Z,17.15
2023-04-17T03:08:13.750Z,16.20
2023-04-17T03:11:07.654Z,16.48
2023-04-17T03:13:54.727Z,16.70
2023-04-17T03:16:48.663Z,16.02
2023-04-17T03:19:35.960Z,17.10
2023-04-17T03:22:29.654Z,15.55
2023-04-17T03:25:16.895Z,15.43
2023-04-17T03:28:10.695Z,15.77
2023-04-17T03:31:05.728Z,18.50
2023-04-17T03:33:59.747Z,16.48
2023-04-17T03:36:46.980Z,17.30
2023-04-17T03:39:40.680Z,17.65
2023-04-17T03:42:34.780Z,16.63
2023-04-17T03:45:21.876Z,17.48
2023-04-17T03:48:15.768Z,17.05
2023-04-17T03:51:03.527Z,20.77
2023-04-17T03:53:56.737Z,19.00
2023-04-17T03:56:50.772Z,19.80
2023-04-17T03:59:44.741Z,20.00
2023-04-17T04:02:31.859Z,17.95
2023-04-17T04:05:25.896Z,18.05
2023-04-17T04:08:19.740Z,22.40
2023-04-17T04:11:06.839Z,22.48
2023-04-17T04:14:00.790Z,21.25
2023-04-17T04:16:55.031Z,20.25
2023-04-17T04:19:49.823Z,18.67
2023-04-17T04:22:43.982Z,22.45
2023-04-17T04:25:32.427Z,22.00
2023-04-17T04:28:25.751Z,19.88
2023-04-17T04:31:14.831Z,20.58
2023-04-17T04:34:08.813Z,18.70
2023-04-17T04:37:12.811Z,20.05
2023-04-17T04:40:08.796Z,19.92
2023-04-17T04:43:02.807Z,24.63
2023-04-17T04:45:49.928Z,23.58
2023-04-17T04:48:43.868Z,21.70
2023-04-17T04:51:39.156Z,21.80
2023-04-17T04:54:32.860Z,24.20
2023-04-17T04:57:20.118Z,21.75
2023-04-17T05:00:15.895Z,20.58
2023-04-17T05:03:03.142Z,19.95
2023-04-17T05:05:56.879Z,20.48
2023-04-17T05:08:51.901Z,20.55
2023-04-17T05:11:39.132Z,19.73
2023-04-17T05:14:32.914Z,21.23
2023-04-17T05:17:20.262Z,20.05
2023-04-17T05:20:15.913Z,21.52
2023-04-17T05:23:09.858Z,20.00
2023-04-17T05:26:03.897Z,21.38
2023-04-17T05:28:57.893Z,19.20
2023-04-17T05:31:51.944Z,21.58
2023-04-17T05:34:39.099Z,21.40
2023-04-17T05:37:32.892Z,21.13
2023-04-17T05:40:26.928Z,18.13
2023-04-17T05:43:14.060Z,20.45
2023-04-17T05:46:07.958Z,23.48
2023-04-17T05:48:55.138Z,20.42
2023-04-17T05:51:48.898Z,21.35
2023-04-17T05:54:36.189Z,19.92
2023-04-17T05:57:35.942Z,20.10
2023-04-17T06:00:29.940Z,18.08
2023-04-17T06:03:24.413Z,19.88
2023-04-17T06:06:18.950Z,17.45
2023-04-17T06:09:07.896Z,19.50
2023-04-17T06:12:02.070Z,20.58
2023-04-17T06:14:55.976Z,20.20
2023-04-17T06:17:43.012Z,23.02
2023-04-17T06:20:39.421Z,23.67
2023-04-17T06:23:33.965Z,22.85
2023-04-17T06:26:27.976Z,24.88
2023-04-17T06:29:22.299Z,24.67
2023-04-17T06:32:15.963Z,24.73
2023-04-17T06:35:03.324Z,25.40
2023-04-17T06:37:57.047Z,25.85
2023-04-17T06:40:52.584Z,22.80
2023-04-17T06:43:40.106Z,22.85
2023-04-17T06:46:34.129Z,22.80
2023-04-17T06:49:21.277Z,23.67
2023-04-17T06:52:15.313Z,21.65
2023-04-17T06:55:02.660Z,20.77
2023-04-17T06:57:56.014Z,21.17
2023-04-17T07:00:50.049Z,18.92
2023-04-17T07:03:39.139Z,21.67
2023-04-17T07:06:33.018Z,21.70
2023-04-17T07:09:20.461Z,21.55
2023-04-17T07:12:14.075Z,19.13
2023-04-17T07:15:01.561Z,22.23
2023-04-17T07:17:55.112Z,21.98
2023-04-17T07:20:42.205Z,22.70
2023-04-17T07:23:36.109Z,21.98
2023-04-17T07:26:23.257Z,22.92
2023-04-17T07:29:17.056Z,22.58
2023-04-17T07:32:11.357Z,25.08
2023-04-17T07:34:58.462Z,23.45
2023-04-17T07:37:52.112Z,22.70
2023-04-17T07:40:46.069Z,24.63
2023-04-17T07:43:40.113Z,22.70
2023-04-17T07:46:27.233Z,24.45
2023-04-17T07:49:21.146Z,25.05
2023-04-17T07:52:08.903Z,26.25
2023-04-17T07:55:03.131Z,23.92
2023-04-17T07:57:51.813Z,25.98
2023-04-17T08:00:46.229Z,22.98
2023-04-17T08:03:33.931Z,24.95
2023-04-17T08:06:28.186Z,23.55
2023-04-17T08:09:15.316Z,23.15
2023-04-17T08:12:09.224Z,22.30
2023-04-17T08:15:03.410Z,20.80
2023-04-17T08:17:50.593Z,20.27
2023-04-17T08:20:44.225Z,24.25
2023-04-17T08:23:38.232Z,24.23
2023-04-17T08:26:25.350Z,25.98
2023-04-17T08:29:19.208Z,24.75
2023-04-17T08:32:14.817Z,22.58
2023-04-17T08:35:09.188Z,23.13
2023-04-17T08:37:58.884Z,24.95
2023-04-17T08:40:58.190Z,24.27
2023-04-17T08:43:56.175Z,22.63
2023-04-17T08:46:50.230Z,23.40
2023-04-17T08:49:37.707Z,24.10
2023-04-17T08:52:31.186Z,22.38
2023-04-17T08:55:24.912Z,20.70
2023-04-17T08:58:20.239Z,20.73
2023-04-17T09:01:10.983Z,20.70
2023-04-17T09:04:04.474Z,21.45
2023-04-17T09:06:54.411Z,18.63
2023-04-17T09:10:01.221Z,20.52
2023-04-17T09:13:00.316Z,20.23
2023-04-17T09:16:10.452Z,19.85
2023-04-17T09:19:14.565Z,18.83
2023-04-17T09:22:26.253Z,17.23
2023-04-17T09:25:29.231Z,18.85
2023-04-17T09:28:16.692Z,16.17
2023-04-17T09:31:12.517Z,14.98
2023-04-17T09:34:01.894Z,16.90
2023-04-17T09:37:01.345Z,15.73
2023-04-17T09:40:09.332Z,15.23
2023-04-17T09:43:09.470Z,17.27
2023-04-17T09:46:04.352Z,15.73
2023-04-17T09:48:51.762Z,15.88
2023-04-17T09:51:46.299Z,16.42
2023-04-17T09:54:44.296Z,15.18
2023-04-17T09:57:31.832Z,14.63
2023-04-17T10:00:27.440Z,13.45
2023-04-17T10:03:24.589Z,17.92
2023-04-17T10:06:13.102Z,16.70
2023-04-17T10:09:07.374Z,15.02
2023-04-17T10:12:03.569Z,15.15
2023-04-17T10:14:59.372Z,14.70
2023-04-17T10:17:46.675Z,16.65
2023-04-17T10:20:42.353Z,15.13
2023-04-17T10:23:34.081Z,15.25
2023-04-17T10:26:34.319Z,13.57
2023-04-17T10:29:57.786Z,13.75
2023-04-17T10:32:53.443Z,16.52
2023-04-17T10:35:40.692Z,15.20
2023-04-17T10:38:42.400Z,15.40
2023-04-17T10:41:32.379Z,14.68
2023-04-17T10:44:26.446Z,15.98
2023-04-17T10:47:16.433Z,14.68
2023-04-17T10:50:14.496Z,17.25
2023-04-17T10:53:01.700Z,16.42
2023-04-17T10:55:58.525Z,15.90
2023-04-17T10:59:12.768Z,17.40
2023-04-17T11:02:01.487Z,15.05
2023-04-17T11:04:55.406Z,13.07
2023-04-17T11:07:50.369Z,12.85
2023-04-17T11:10:44.482Z,14.07
2023-04-17T11:13:41.413Z,16.30
2023-04-17T11:16:28.876Z,15.48
2023-04-17T11:19:27.438Z,14.80
2023-04-17T11:22:23.719Z,15.27
2023-04-17T11:25:20.690Z,15.05
2023-04-17T11:28:14.578Z,16.70
2023-04-17T11:31:08.504Z,13.80
2023-04-17T11:33:55.705Z,12.77
2023-04-17T11:36:56.471Z,12.70
2023-04-17T11:39:50.418Z,10.30
2023-04-17T11:42:45.147Z,13.05
2023-04-17T11:45:40.516Z,14.43
2023-04-17T11:48:31.978Z,14.23
2023-04-17T11:51:26.817Z,12.15
2023-04-17T11:54:27.608Z,11.45
2023-04-17T11:57:21.528Z,11.77
2023-04-17T12:00:20.509Z,14.50
2023-04-17T12:03:41.659Z,14.15
2023-04-17T12:06:44.509Z,13.13
2023-04-17T12:09:35.528Z,12.48
2023-04-17T12:12:29.612Z,11.68
2023-04-17T12:15:23.566Z,15.40
2023-04-17T12:18:10.884Z,12.60
2023-04-17T12:21:04.565Z,13.82
2023-04-17T12:23:52.096Z,15.10
2023-04-17T12:26:55.577Z,14.75
2023-04-17T12:29:44.825Z,12.73
2023-04-17T12:32:38.595Z,13.13
2023-04-17T12:35:32.617Z,14.18
2023-04-17T12:38:19.842Z,14.18
2023-04-17T12:41:13.554Z,16.23
2023-04-17T12:44:09.635Z,16.52
2023-04-17T12:46:56.843Z,18.20
2023-04-17T12:49:50.649Z,15.13
2023-04-17T12:52:39.061Z,15.23
2023-04-17T12:55:32.643Z,17.75
2023-04-17T12:58:19.809Z,16.52
2023-04-17T13:01:13.689Z,15.25
2023-04-17T13:04:00.996Z,17.85
2023-04-17T13:06:54.649Z,17.30
2023-04-17T13:09:41.827Z,16.17
2023-04-17T13:12:35.613Z,14.50
2023-04-17T13:15:29.639Z,13.90
2023-04-17T13:18:23.659Z,12.27
2023-04-17T13:21:17.604Z,13.98
2023-04-17T13:24:05.171Z,14.50
2023-04-17T13:26:58.691Z,16.65
2023-04-17T13:29:45.808Z,17.00
2023-04-17T13:32:41.710Z,16.90
2023-04-17T13:35:35.676Z,15.23
2023-04-17T13:38:30.068Z,14.88
2023-04-17T13:41:17.192Z,14.13
2023-04-17T13:44:10.673Z,13.82
2023-04-17T13:46:57.974Z,17.83
2023-04-17T13:49:51.618Z,16.02
2023-04-17T13:52:38.703Z,17.98
2023-04-17T13:55:32.649Z,15.20
2023-04-17T13:58:26.696Z,16.90
2023-04-17T14:01:20.704Z,13.68
2023-04-17T14:04:14.733Z,16.90
2023-04-17T14:07:02.282Z,18.02
2023-04-17T14:09:56.958Z,16.95
2023-04-17T14:12:44.114Z,14.38
2023-04-17T14:15:38.679Z,19.38
2023-04-17T14:18:25.848Z,18.77
2023-04-17T14:21:19.695Z,17.27
2023-04-17T14:24:13.808Z,18.33
2023-04-17T14:27:08.714Z,19.20
2023-04-17T14:29:55.814Z,20.63
2023-04-17T14:32:57.838Z,21.65
2023-04-17T14:35:51.797Z,20.83
2023-04-17T14:38:45.777Z,20.02
2023-04-17T14:41:40.774Z,17.70
2023-04-17T14:44:27.918Z,19.13
2023-04-17T14:47:21.836Z,19.30
2023-04-17T14:50:09.622Z,17.00
2023-04-17T14:53:03.764Z,15.35
2023-04-17T14:55:57.766Z,17.05
2023-04-17T14:58:44.915Z,19.17
2023-04-17T15:01:38.717Z,16.10
2023-04-17T15:04:32.887Z,17.60
2023-04-17T15:07:27.058Z,18.42
2023-04-17T15:10:15.118Z,18.40
2023-04-17T15:13:09.766Z,18.63
2023-04-17T15:16:03.893Z,16.20
2023-04-17T15:18:51.347Z,16.25
2023-04-17T15:21:44.843Z,16.58
2023-04-17T15:24:31.951Z,16.50
2023-04-17T15:27:26.839Z,16.75
2023-04-17T15:30:14.611Z,18.40
2023-04-17T15:33:09.895Z,15.48
2023-04-17T15:35:59.234Z,17.05
2023-04-17T15:38:52.913Z,15.38
2023-04-17T15:41:40.698Z,15.43
2023-04-17T15:44:35.854Z,17.17
2023-04-17T15:47:23.227Z,15.77
2023-04-17T15:50:16.894Z,16.42
2023-04-17T15:53:10.882Z,18.40
2023-04-17T15:55:58.060Z,14.38
2023-04-17T15:58:51.853Z,15.18
2023-04-17T16:01:38.973Z,15.63
2023-04-17T16:04:33.089Z,17.33
2023-04-17T16:07:26.988Z,15.23
2023-04-17T16:10:20.857Z,15.40
2023-04-17T16:13:08.455Z,14.35
2023-04-17T16:16:01.969Z,14.80
2023-04-17T16:18:49.122Z,16.00
2023-04-17T16:21:43.887Z,14.07
2023-04-17T16:24:31.172Z,15.68
2023-04-17T16:27:24.982Z,13.73
2023-04-17T16:30:18.947Z,15.20
2023-04-17T16:33:06.057Z,13.57
2023-04-17T16:35:59.920Z,15.85
2023-04-17T16:38:53.567Z,15.05
2023-04-17T16:41:47.050Z,14.95
2023-04-17T16:44:34.221Z,15.40
2023-04-17T16:47:28.048Z,15.45
2023-04-17T16:50:15.246Z,15.02
2023-04-17T16:53:08.949Z,14.70
2023-04-17T16:55:57.082Z,15.85
2023-04-17T16:58:50.955Z,15.13
2023-04-17T17:01:38.132Z,16.55
2023-04-17T17:04:32.067Z,14.88
2023-04-17T17:07:19.226Z,16.67
2023-04-17T17:10:13.957Z,14.40
2023-04-17T17:13:08.011Z,14.88
2023-04-17T17:15:55.108Z,15.63
2023-04-17T17:18:49.000Z,14.30
2023-04-17T17:21:36.353Z,14.82
2023-04-17T17:24:30.264Z,16.17
2023-04-17T17:27:17.362Z,15.88
2023-04-17T17:30:11.985Z,15.13
2023-04-17T17:32:59.109Z,14.25
2023-04-17T17:35:53.013Z,15.65
2023-04-17T17:38:40.642Z,15.35
2023-04-17T17:41:34.131Z,16.15
2023-04-17T17:44:21.385Z,16.73
2023-04-17T17:47:15.070Z,14.73
2023-04-17T17:50:09.075Z,17.23
2023-04-17T17:52:58.761Z,16.30
2023-04-17T17:56:02.085Z,16.70
2023-04-17T17:58:50.824Z,16.40
2023-04-17T18:01:44.152Z,15.52
2023-04-17T18:04:31.365Z,15.85
2023-04-17T18:07:25.080Z,16.10
2023-04-17T18:10:12.324Z,16.05
2023-04-17T18:13:06.348Z,16.15
2023-04-17T18:15:53.571Z,15.88
2023-04-17T18:18:47.080Z,16.05
2023-04-17T18:21:34.340Z,16.52
2023-04-17T18:24:28.150Z,14.70
2023-04-17T18:27:22.099Z,15.60
2023-04-17T18:30:16.081Z,17.65
2023-04-17T18:33:03.276Z,19.25
2023-04-17T18:35:57.059Z,17.60
2023-04-17T18:38:44.230Z,20.25
2023-04-17T18:41:38.148Z,18.33
2023-04-17T18:44:25.295Z,17.15
2023-04-17T18:47:19.094Z,19.05
2023-04-17T18:50:07.035Z,18.88
2023-04-17T18:53:01.112Z,19.38
2023-04-17T18:55:48.132Z,20.65
2023-04-17T18:58:42.155Z,20.15
2023-04-17T19:01:29.313Z,20.13
2023-04-17T19:04:23.159Z,22.05
2023-04-17T19:07:10.274Z,21.25
2023-04-17T19:10:04.211Z,19.23
2023-04-17T19:12:58.182Z,19.17
2023-04-17T19:15:45.254Z,21.00
2023-04-17T19:18:39.150Z,22.20
2023-04-17T19:21:33.150Z,19.80
2023-04-17T19:24:20.434Z,20.60
2023-04-17T19:27:14.219Z,20.73
2023-04-17T19:30:01.255Z,18.83
2023-04-17T19:32:55.196Z,18.50
2023-04-17T19:35:49.204Z,20.42
2023-04-17T19:38:43.208Z,21.60
2023-04-17T19:41:30.262Z,20.85
2023-04-17T19:44:25.956Z,18.38
2023-04-17T19:47:14.498Z,19.88
2023-04-17T19:50:08.393Z,18.83
2023-04-17T19:52:57.060Z,17.67
2023-04-17T19:55:50.273Z,16.13
2023-04-17T19:58:38.137Z,16.50
2023-04-17T20:01:31.338Z,16.45
2023-04-17T20:04:18.705Z,20.52
2023-04-17T20:07:12.311Z,18.58
2023-04-17T20:10:06.276Z,20.90
2023-04-17T20:12:53.368Z,20.85
2023-04-17T20:15:47.381Z,19.27
2023-04-17T20:18:37.008Z,18.48
2023-04-17T20:21:31.259Z,21.33
2023-04-17T20:24:18.432Z,19.77
2023-04-17T20:27:12.290Z,20.30
2023-04-17T20:29:59.533Z,18.15
2023-04-17T20:32:54.368Z,20.98
2023-04-17T20:35:49.333Z,20.52
2023-04-17T20:38:43.301Z,18.75
2023-04-17T20:41:39.350Z,18.25
2023-04-17T20:44:26.852Z,15.18
2023-04-17T20:47:20.357Z,18.25
2023-04-17T20:50:15.549Z,18.15
2023-04-17T20:53:09.353Z,17.58
2023-04-17T20:55:57.907Z,20.83
2023-04-17T20:58:52.377Z,21.67
2023-04-17T21:01:39.525Z,20.50
2023-04-17T21:04:33.316Z,20.30
2023-04-17T21:07:27.385Z,20.23
2023-04-17T21:10:14.525Z,19.25
2023-04-17T21:13:08.344Z,17.55
2023-04-17T21:16:02.438Z,20.73
2023-04-17T21:18:49.548Z,20.27
2023-04-17T21:21:43.405Z,20.20
2023-04-17T21:24:30.598Z,19.13
2023-04-17T21:27:24.366Z,17.52
2023-04-17T21:30:11.661Z,17.13
2023-04-17T21:33:05.453Z,17.42
2023-04-17T21:35:59.460Z,18.13
2023-04-17T21:38:46.548Z,17.77
2023-04-17T21:41:40.373Z,18.02
2023-04-17T21:44:34.357Z,16.60
2023-04-17T21:47:21.551Z,16.45
2023-04-17T21:50:16.374Z,16.60
2023-04-17T21:53:03.527Z,15.80
2023-04-17T21:55:57.383Z,15.90
2023-04-17T21:58:51.407Z,15.02
2023-04-17T22:01:38.587Z,15.32
2023-04-17T22:04:33.494Z,15.38
2023-04-17T22:07:21.612Z,16.10
2023-04-17T22:10:16.436Z,14.70
2023-04-17T22:13:03.840Z,15.85
2023-04-17T22:15:58.566Z,15.70
2023-04-17T22:18:45.771Z,15.23
2023-04-17T22:21:39.529Z,15.88
2023-04-17T22:24:26.620Z,16.08
2023-04-17T22:27:20.522Z,17.90
2023-04-17T22:30:14.510Z,17.13
2023-04-17T22:33:08.531Z,15.65
2023-04-17T22:36:02.708Z,15.98
2023-04-17T22:38:49.902Z,16.60
2023-04-17T22:41:43.472Z,16.17
2023-04-17T22:44:30.640Z,14.95
2023-04-17T22:47:24.552Z,15.15
2023-04-17T22:50:13.778Z,14.60
2023-04-17T22:53:07.535Z,17.40
2023-04-17T22:56:09.558Z,17.05
2023-04-17T22:58:56.576Z,15.57
2023-04-17T23:01:50.551Z,18.50
2023-04-17T23:04:37.856Z,17.10
2023-04-17T23:07:31.554Z,17.27
2023-04-17T23:10:26.839Z,16.73
2023-04-17T23:13:20.557Z,19.35
2023-04-17T23:16:07.938Z,19.42
2023-04-17T23:19:01.633Z,16.38
2023-04-17T23:21:55.528Z,17.45
2023-04-17T23:24:42.680Z,16.85
2023-04-17T23:27:37.084Z,16.77
2023-04-17T23:30:24.260Z,15.75
2023-04-17T23:33:17.576Z,17.52
2023-04-17T23:36:04.913Z,16.05
2023-04-17T23:38:58.676Z,16.50
2023-04-17T23:41:52.634Z,15.68
2023-04-17T23:44:46.890Z,16.17
2023-04-17T23:47:34.306Z,13.63
2023-04-17T23:50:27.650Z,15.07
2023-04-17T23:53:14.829Z,15.73
2023-04-17T23:56:08.627Z,15.45
2023-04-17T23:58:56.563Z,17.75
